createdAt,value
2023-05-03T00:00:18.053Z,15.31
2023-05-03T00:01:18.095Z,15.36
2023-05-03T00:02:18.247Z,15.39
2023-05-03T00:03:18.240Z,15.36
2023-05-03T00:04:18.222Z,15.38
2023-05-03T00:05:18.298Z,15.43
2023-05-03T00:06:18.358Z,15.39
2023-05-03T00:07:18.404Z,15.21
2023-05-03T00:08:18.385Z,15.08
2023-05-03T00:09:18.478Z,15.04
2023-05-03T00:10:18.619Z,14.78
2023-05-03T00:11:18.550Z,14.53
2023-05-03T00:12:18.559Z,14.22
2023-05-03T00:13:18.612Z,14.37
2023-05-03T00:14:18.683Z,14.50
2023-05-03T00:15:18.776Z,14.59
2023-05-03T00:16:18.772Z,14.22
2023-05-03T00:17:18.813Z,14.17
2023-05-03T00:18:18.909Z,14.29
2023-05-03T00:19:28.345Z,14.32
2023-05-03T00:20:19.993Z,14.02
2023-05-03T00:21:18.927Z,14.03
2023-05-03T00:22:18.927Z,13.78
2023-05-03T00:23:18.935Z,13.95
2023-05-03T00:24:18.876Z,13.88
2023-05-03T00:25:18.933Z,13.98
2023-05-03T00:26:18.906Z,13.95
2023-05-03T00:27:18.873Z,14.17
2023-05-03T00:28:18.913Z,14.09
2023-05-03T00:29:18.870Z,14.22
2023-05-03T00:30:18.913Z,14.37
2023-05-03T00:31:18.981Z,14.44
2023-05-03T00:32:18.824Z,14.30
2023-05-03T00:33:18.900Z,14.16
2023-05-03T00:34:18.848Z,14.27
2023-05-03T00:35:20.724Z,14.19
2023-05-03T00:36:18.925Z,13.64
2023-05-03T00:37:18.967Z,13.65
2023-05-03T00:38:19.023Z,13.71
2023-05-03T00:39:19.116Z,13.72
2023-05-03T00:40:19.138Z,13.44
2023-05-03T00:41:19.252Z,13.55
2023-05-03T00:42:19.211Z,13.72
2023-05-03T00:43:19.272Z,13.64
2023-05-03T00:44:19.309Z,13.93
2023-05-03T00:45:19.276Z,13.96
2023-05-03T00:46:19.344Z,13.90
2023-05-03T00:47:19.497Z,13.65
2023-05-03T00:48:19.459Z,13.76
2023-05-03T00:49:19.569Z,13.57
2023-05-03T00:50:19.573Z,13.68
2023-05-03T00:51:19.541Z,13.83
2023-05-03T00:52:19.702Z,13.96
2023-05-03T00:53:19.584Z,14.09
2023-05-03T00:54:19.618Z,14.10
2023-05-03T00:55:19.605Z,14.23
2023-05-03T00:56:19.670Z,14.27
2023-05-03T00:57:19.713Z,14.34
2023-05-03T00:58:19.793Z,14.43
2023-05-03T00:59:19.796Z,14.54
2023-05-03T01:00:20.676Z,14.64
2023-05-03T01:01:20.165Z,14.77
2023-05-03T01:02:19.901Z,14.77
2023-05-03T01:03:20.046Z,14.68
2023-05-03T01:04:20.005Z,14.67
2023-05-03T01:05:20.013Z,14.57
2023-05-03T01:06:20.106Z,14.33
2023-05-03T01:07:20.081Z,14.15
2023-05-03T01:08:20.060Z,14.26
2023-05-03T01:09:20.047Z,14.27
2023-05-03T01:10:20.131Z,14.22
2023-05-03T01:11:20.120Z,14.16
2023-05-03T01:12:20.188Z,14.26
2023-05-03T01:13:20.230Z,14.44
2023-05-03T01:14:20.223Z,14.29
2023-05-03T01:15:20.249Z,14.59
2023-05-03T01:16:20.329Z,14.63
2023-05-03T01:17:20.349Z,14.41
2023-05-03T01:18:20.396Z,14.39
2023-05-03T01:19:20.426Z,14.50
2023-05-03T01:20:20.437Z,14.51
2023-05-03T01:21:20.598Z,14.51
2023-05-03T01:22:20.599Z,14.63
2023-05-03T01:23:20.595Z,14.50
2023-05-03T01:24:20.692Z,14.47
2023-05-03T01:25:20.696Z,14.44
2023-05-03T01:26:20.727Z,14.24
2023-05-03T01:27:20.771Z,14.24
2023-05-03T01:28:20.761Z,14.43
2023-05-03T01:29:20.844Z,14.41
2023-05-03T01:30:20.859Z,14.56
2023-05-03T01:31:21.061Z,14.60
2023-05-03T01:32:21.032Z,14.70
2023-05-03T01:33:21.041Z,14.73
2023-05-03T01:34:21.032Z,14.71
2023-05-03T01:35:21.058Z,14.74
2023-05-03T01:36:21.046Z,14.74
2023-05-03T01:37:21.137Z,14.85
2023-05-03T01:38:21.135Z,14.85
2023-05-03T01:39:21.329Z,14.84
2023-05-03T01:40:21.243Z,14.85
2023-05-03T01:41:21.357Z,14.84
2023-05-03T01:42:21.384Z,14.83
2023-05-03T01:43:21.382Z,14.51
2023-05-03T01:44:21.430Z,14.59
2023-05-03T01:45:21.477Z,14.63
2023-05-03T01:46:21.707Z,14.37
2023-05-03T01:47:21.586Z,14.63
2023-05-03T01:48:21.634Z,14.48
2023-05-03T01:49:21.736Z,14.60
2023-05-03T01:50:21.839Z,14.67
2023-05-03T01:51:21.806Z,14.48
2023-05-03T01:52:21.934Z,14.63
2023-05-03T01:53:21.918Z,14.51
2023-05-03T01:54:21.967Z,14.63
2023-05-03T01:55:22.075Z,14.67
2023-05-03T01:56:22.057Z,14.61
2023-05-03T01:57:22.202Z,14.45
2023-05-03T01:58:22.239Z,14.67
2023-05-03T01:59:22.266Z,14.71
2023-05-03T02:00:22.410Z,14.66
2023-05-03T02:01:22.334Z,14.56
2023-05-03T02:02:22.353Z,14.43
2023-05-03T02:03:22.440Z,14.61
2023-05-03T02:04:22.472Z,14.68
2023-05-03T02:05:22.415Z,14.71
2023-05-03T02:06:22.451Z,14.74
2023-05-03T02:07:22.615Z,14.73
2023-05-03T02:08:22.423Z,14.74
2023-05-03T02:09:22.428Z,14.67
2023-05-03T02:10:22.464Z,14.73
2023-05-03T02:11:22.528Z,14.22
2023-05-03T02:12:22.579Z,14.06
2023-05-03T02:13:22.562Z,14.05
2023-05-03T02:14:22.594Z,14.23
2023-05-03T02:15:22.642Z,14.05
2023-05-03T02:16:22.809Z,14.10
2023-05-03T02:17:22.691Z,14.12
2023-05-03T02:18:22.650Z,13.96
2023-05-03T02:19:22.720Z,13.95
2023-05-03T02:20:22.709Z,13.96
2023-05-03T02:21:23.184Z,13.68
2023-05-03T02:22:22.886Z,13.83
2023-05-03T02:23:22.896Z,13.90
2023-05-03T02:24:23.799Z,13.82
2023-05-03T02:25:22.941Z,13.69
2023-05-03T02:26:22.994Z,13.38
2023-05-03T02:27:23.076Z,13.59
2023-05-03T02:28:23.041Z,13.52
2023-05-03T02:29:23.192Z,13.58
2023-05-03T02:30:23.136Z,13.47
2023-05-03T02:31:23.168Z,13.69
2023-05-03T02:32:23.208Z,13.85
2023-05-03T02:33:23.246Z,13.89
2023-05-03T02:34:23.317Z,14.02
2023-05-03T02:35:23.382Z,14.09
2023-05-03T02:36:23.392Z,13.89
2023-05-03T02:37:23.565Z,13.72
2023-05-03T02:38:23.488Z,13.90
2023-05-03T02:39:23.496Z,14.01
2023-05-03T02:40:23.532Z,13.93
2023-05-03T02:41:23.601Z,14.05
2023-05-03T02:42:23.670Z,14.17
2023-05-03T02:43:23.705Z,14.22
2023-05-03T02:44:23.709Z,14.09
2023-05-03T02:45:23.789Z,13.81
2023-05-03T02:46:23.879Z,13.68
2023-05-03T02:47:23.955Z,13.57
2023-05-03T02:48:23.883Z,13.14
2023-05-03T02:49:23.898Z,13.11
2023-05-03T02:50:23.972Z,13.13
2023-05-03T02:51:23.988Z,13.28
2023-05-03T02:52:24.094Z,13.30
2023-05-03T02:53:24.112Z,13.50
2023-05-03T02:54:24.137Z,13.44
2023-05-03T02:55:24.267Z,13.58
2023-05-03T02:56:24.339Z,13.51
2023-05-03T02:57:24.302Z,13.50
2023-05-03T02:58:24.415Z,13.24
2023-05-03T02:59:24.337Z,13.31
2023-05-03T03:00:24.366Z,13.42
2023-05-03T03:01:24.455Z,13.34
2023-05-03T03:02:24.585Z,13.50
2023-05-03T03:03:24.583Z,13.61
2023-05-03T03:04:24.486Z,13.64
2023-05-03T03:05:24.504Z,13.68
2023-05-03T03:06:24.630Z,13.78
2023-05-03T03:07:24.594Z,13.82
2023-05-03T03:08:24.602Z,13.93
2023-05-03T03:09:24.680Z,13.96
2023-05-03T03:10:24.692Z,13.92
2023-05-03T03:11:24.778Z,13.95
2023-05-03T03:12:24.863Z,13.71
2023-05-03T03:13:24.812Z,13.35
2023-05-03T03:14:24.876Z,13.24
2023-05-03T03:15:24.897Z,13.10
2023-05-03T03:16:24.977Z,13.22
2023-05-03T03:17:25.012Z,13.10
2023-05-03T03:18:24.959Z,13.07
2023-05-03T03:19:25.081Z,13.00
2023-05-03T03:20:24.991Z,13.18
2023-05-03T03:21:25.085Z,13.04
2023-05-03T03:22:25.178Z,13.06
2023-05-03T03:23:25.665Z,13.31
2023-05-03T03:24:25.222Z,13.34
2023-05-03T03:25:25.135Z,13.52
2023-05-03T03:26:25.715Z,13.54
2023-05-03T03:27:26.246Z,13.50
2023-05-03T03:28:25.265Z,13.64
2023-05-03T03:29:25.259Z,13.66
2023-05-03T03:30:25.282Z,13.64
2023-05-03T03:31:25.333Z,13.62
2023-05-03T03:32:25.674Z,13.48
2023-05-03T03:33:25.404Z,13.51
2023-05-03T03:34:25.358Z,13.65
2023-05-03T03:35:25.367Z,13.59
2023-05-03T03:36:25.399Z,13.73
2023-05-03T03:37:25.408Z,13.76
2023-05-03T03:38:25.526Z,13.88
2023-05-03T03:39:25.549Z,13.79
2023-05-03T03:40:25.562Z,13.89
2023-05-03T03:41:25.641Z,13.83
2023-05-03T03:42:25.666Z,13.85
2023-05-03T03:43:25.686Z,13.81
2023-05-03T03:44:25.699Z,13.73
2023-05-03T03:45:25.714Z,13.75
2023-05-03T03:46:25.914Z,13.86
2023-05-03T03:47:25.905Z,13.71
2023-05-03T03:48:26.174Z,13.95
2023-05-03T03:49:25.891Z,13.79
2023-05-03T03:50:25.957Z,13.92
2023-05-03T03:51:25.987Z,14.01
2023-05-03T03:52:26.064Z,13.82
2023-05-03T03:53:26.063Z,13.55
2023-05-03T03:54:26.133Z,13.50
2023-05-03T03:55:26.155Z,13.57
2023-05-03T03:56:26.234Z,13.61
2023-05-03T03:57:26.268Z,13.59
2023-05-03T03:58:26.321Z,13.61
2023-05-03T03:59:26.380Z,13.52
2023-05-03T04:00:26.446Z,13.66
2023-05-03T04:01:26.477Z,13.52
2023-05-03T04:02:26.625Z,13.62
2023-05-03T04:03:26.723Z,13.76
2023-05-03T04:04:26.687Z,13.73
2023-05-03T04:05:26.658Z,13.89
2023-05-03T04:06:26.704Z,13.93
2023-05-03T04:07:26.687Z,13.99
2023-05-03T04:08:26.754Z,14.10
2023-05-03T04:09:26.825Z,14.13
2023-05-03T04:10:26.845Z,14.22
2023-05-03T04:11:26.926Z,14.29
2023-05-03T04:12:26.950Z,14.33
2023-05-03T04:13:26.947Z,14.30
2023-05-03T04:14:26.970Z,14.27
2023-05-03T04:15:27.703Z,14.23
2023-05-03T04:16:27.222Z,14.33
2023-05-03T04:17:27.039Z,14.39
2023-05-03T04:18:27.091Z,14.30
2023-05-03T04:19:27.108Z,14.22
2023-05-03T04:20:27.148Z,14.37
2023-05-03T04:21:27.152Z,14.45
2023-05-03T04:22:27.167Z,14.57
2023-05-03T04:23:27.240Z,14.59
2023-05-03T04:24:27.257Z,14.66
2023-05-03T04:25:27.312Z,14.70
2023-05-03T04:26:31.838Z,14.64
2023-05-03T04:27:28.344Z,14.56
2023-05-03T04:28:27.291Z,14.64
2023-05-03T04:29:27.297Z,14.73
2023-05-03T04:30:28.243Z,14.80
2023-05-03T04:31:27.315Z,14.78
2023-05-03T04:32:27.306Z,14.66
2023-05-03T04:33:27.728Z,14.67
2023-05-03T04:34:27.269Z,14.63
2023-05-03T04:35:27.269Z,14.68
2023-05-03T04:36:27.223Z,14.75
2023-05-03T04:37:28.216Z,14.84
2023-05-03T04:38:27.306Z,14.91
2023-05-03T04:39:27.384Z,14.99
2023-05-03T04:40:27.407Z,15.05
2023-05-03T04:41:27.481Z,15.11
2023-05-03T04:42:27.538Z,15.19
2023-05-03T04:43:27.593Z,15.11
2023-05-03T04:44:27.645Z,15.17
2023-05-03T04:45:27.695Z,15.17
2023-05-03T04:46:27.825Z,15.12
2023-05-03T04:47:27.843Z,15.18
2023-05-03T04:48:27.863Z,15.17
2023-05-03T04:49:27.833Z,15.25
2023-05-03T04:50:27.891Z,15.32
2023-05-03T04:51:27.943Z,15.35
2023-05-03T04:52:27.953Z,15.38
2023-05-03T04:53:28.020Z,15.42
2023-05-03T04:54:28.061Z,15.49
2023-05-03T04:55:28.094Z,15.56
2023-05-03T04:56:28.177Z,15.55
2023-05-03T04:57:28.145Z,15.53
2023-05-03T04:58:28.198Z,15.63
2023-05-03T04:59:28.214Z,15.69
2023-05-03T05:00:28.273Z,15.73
2023-05-03T05:01:28.416Z,15.80
2023-05-03T05:02:28.485Z,15.87
2023-05-03T05:03:28.529Z,15.90
2023-05-03T05:04:28.452Z,15.92
2023-05-03T05:05:28.481Z,15.92
2023-05-03T05:06:28.482Z,15.97
2023-05-03T05:07:28.506Z,15.98
2023-05-03T05:08:28.584Z,15.94
2023-05-03T05:09:28.558Z,15.97
2023-05-03T05:10:28.563Z,15.98
2023-05-03T05:11:28.638Z,16.04
2023-05-03T05:12:29.209Z,16.06
2023-05-03T05:13:28.718Z,16.10
2023-05-03T05:14:28.805Z,16.14
2023-05-03T05:15:28.774Z,16.16
2023-05-03T05:16:28.843Z,16.17
2023-05-03T05:17:29.006Z,16.23
2023-05-03T05:18:28.996Z,16.25
2023-05-03T05:19:28.886Z,16.28
2023-05-03T05:20:28.905Z,16.21
2023-05-03T05:21:29.020Z,16.20
2023-05-03T05:22:29.002Z,16.25
2023-05-03T05:23:29.211Z,16.28
2023-05-03T05:24:29.030Z,16.37
2023-05-03T05:25:29.066Z,16.41
2023-05-03T05:26:29.169Z,16.45
2023-05-03T05:27:29.101Z,16.48
2023-05-03T05:28:29.935Z,16.54
2023-05-03T05:29:29.266Z,16.50
2023-05-03T05:30:29.305Z,16.54
2023-05-03T05:31:29.441Z,16.55
2023-05-03T05:32:29.249Z,16.59
2023-05-03T05:33:29.841Z,16.57
2023-05-03T05:34:36.356Z,16.61
2023-05-03T05:35:31.339Z,16.59
2023-05-03T05:36:29.451Z,16.59
2023-05-03T05:37:29.323Z,16.61
2023-05-03T05:38:29.244Z,16.65
2023-05-03T05:39:29.358Z,16.64
2023-05-03T05:40:29.223Z,16.66
2023-05-03T05:41:29.410Z,16.69
2023-05-03T05:42:29.271Z,16.69
2023-05-03T05:43:29.279Z,16.72
2023-05-03T05:44:29.188Z,16.69
2023-05-03T05:45:29.321Z,16.75
2023-05-03T05:46:29.317Z,16.80
2023-05-03T05:47:29.342Z,16.83
2023-05-03T05:48:29.373Z,16.86
2023-05-03T05:49:29.395Z,16.90
2023-05-03T05:50:30.188Z,16.93
2023-05-03T05:51:29.377Z,16.93
2023-05-03T05:52:29.465Z,16.95
2023-05-03T05:53:29.471Z,17.01
2023-05-03T05:54:30.505Z,17.01
2023-05-03T05:55:30.592Z,17.03
2023-05-03T05:56:29.547Z,17.09
2023-05-03T05:57:29.549Z,17.01
2023-05-03T05:58:29.612Z,16.99
2023-05-03T05:59:29.679Z,17.02
2023-05-03T06:00:29.731Z,17.10
2023-05-03T06:01:29.723Z,17.12
2023-05-03T06:02:30.009Z,17.19
2023-05-03T06:03:29.825Z,17.27
2023-05-03T06:04:29.818Z,17.34
2023-05-03T06:05:30.924Z,17.36
2023-05-03T06:06:30.033Z,17.40
2023-05-03T06:07:29.883Z,17.34
2023-05-03T06:08:30.002Z,17.25
2023-05-03T06:09:29.978Z,17.19
2023-05-03T06:10:29.983Z,17.19
2023-05-03T06:11:30.013Z,16.76
2023-05-03T06:12:30.058Z,16.90
2023-05-03T06:13:30.399Z,16.68
2023-05-03T06:14:30.127Z,16.86
2023-05-03T06:15:30.361Z,16.71
2023-05-03T06:16:30.237Z,16.86
2023-05-03T06:17:30.445Z,16.96
2023-05-03T06:18:30.774Z,17.02
2023-05-03T06:19:30.320Z,17.09
2023-05-03T06:20:30.285Z,17.16
2023-05-03T06:21:31.215Z,17.15
2023-05-03T06:22:30.363Z,17.13
2023-05-03T06:23:30.430Z,17.15
2023-05-03T06:24:30.457Z,17.23
2023-05-03T06:25:30.634Z,17.16
2023-05-03T06:26:30.488Z,17.23
2023-05-03T06:27:30.560Z,17.26
2023-05-03T06:28:30.690Z,17.30
2023-05-03T06:29:30.595Z,17.37
2023-05-03T06:30:30.619Z,17.44
2023-05-03T06:31:30.733Z,17.51
2023-05-03T06:32:30.751Z,17.57
2023-05-03T06:33:30.726Z,17.71
2023-05-03T06:34:30.739Z,17.85
2023-05-03T06:35:32.241Z,18.01
2023-05-03T06:36:30.881Z,17.81
2023-05-03T06:37:30.760Z,17.92
2023-05-03T06:38:31.730Z,18.16
2023-05-03T06:39:30.890Z,18.27
2023-05-03T06:40:30.959Z,18.38
2023-05-03T06:41:30.894Z,18.42
2023-05-03T06:42:30.941Z,18.42
2023-05-03T06:43:31.232Z,18.38
2023-05-03T06:44:31.095Z,18.62
2023-05-03T06:45:31.096Z,18.27
2023-05-03T06:46:31.312Z,18.58
2023-05-03T06:47:31.197Z,18.69
2023-05-03T06:48:31.272Z,18.86
2023-05-03T06:49:31.286Z,18.99
2023-05-03T06:50:31.273Z,18.91
2023-05-03T06:51:31.306Z,19.09
2023-05-03T06:52:31.803Z,19.15
2023-05-03T06:53:31.385Z,19.27
2023-05-03T06:54:31.407Z,19.34
2023-05-03T06:55:31.474Z,19.20
2023-05-03T06:56:31.508Z,18.86
2023-05-03T06:57:31.605Z,18.94
2023-05-03T06:58:31.603Z,19.10
2023-05-03T06:59:31.595Z,19.09
2023-05-03T07:00:31.726Z,19.28
2023-05-03T07:01:31.780Z,19.34
2023-05-03T07:02:31.731Z,19.52
2023-05-03T07:03:31.896Z,19.47
2023-05-03T07:04:31.757Z,19.37
2023-05-03T07:05:31.906Z,19.37
2023-05-03T07:06:35.527Z,18.96
2023-05-03T07:07:32.897Z,19.13
2023-05-03T07:08:31.849Z,19.20
2023-05-03T07:09:42.647Z,18.89
2023-05-03T07:10:32.839Z,19.03
2023-05-03T07:11:31.847Z,18.59
2023-05-03T07:12:31.818Z,18.32
2023-05-03T07:13:32.228Z,18.36
2023-05-03T07:14:31.805Z,18.62
2023-05-03T07:15:31.827Z,18.66
2023-05-03T07:16:31.901Z,18.84
2023-05-03T07:17:31.855Z,18.77
2023-05-03T07:18:31.767Z,19.14
2023-05-03T07:19:31.791Z,19.01
2023-05-03T07:20:31.759Z,19.34
2023-05-03T07:21:31.883Z,19.54
2023-05-03T07:22:31.916Z,19.66
2023-05-03T07:23:31.961Z,19.85
2023-05-03T07:24:31.904Z,19.82
2023-05-03T07:25:32.053Z,19.99
2023-05-03T07:26:31.967Z,19.65
2023-05-03T07:27:31.983Z,19.92
2023-05-03T07:28:31.972Z,20.13
2023-05-03T07:29:32.016Z,20.11
2023-05-03T07:30:32.039Z,20.02
2023-05-03T07:31:32.115Z,20.03
2023-05-03T07:32:32.197Z,20.05
2023-05-03T07:33:32.350Z,19.72
2023-05-03T07:34:32.158Z,19.88
2023-05-03T07:35:32.132Z,19.92
2023-05-03T07:36:32.215Z,20.03
2023-05-03T07:37:33.912Z,20.16
2023-05-03T07:38:34.334Z,20.27
2023-05-03T07:39:32.306Z,20.27
2023-05-03T07:40:32.378Z,20.11
2023-05-03T07:41:32.393Z,19.66
2023-05-03T07:42:32.445Z,19.75
2023-05-03T07:43:32.429Z,19.75
2023-05-03T07:44:32.454Z,19.57
2023-05-03T07:45:32.540Z,19.83
2023-05-03T07:46:32.519Z,20.15
2023-05-03T07:47:32.589Z,20.16
2023-05-03T07:48:32.630Z,20.09
2023-05-03T07:49:32.692Z,20.23
2023-05-03T07:50:33.398Z,20.39
2023-05-03T07:51:32.799Z,20.34
2023-05-03T07:52:33.298Z,20.62
2023-05-03T07:53:33.081Z,20.74
2023-05-03T07:54:33.093Z,20.75
2023-05-03T07:55:33.255Z,20.36
2023-05-03T07:56:32.960Z,20.40
2023-05-03T07:57:32.914Z,20.29
2023-05-03T07:58:40.248Z,20.26
2023-05-03T07:59:33.916Z,20.39
2023-05-03T08:00:33.009Z,20.70
2023-05-03T08:01:32.885Z,20.75
2023-05-03T08:02:33.392Z,20.63
2023-05-03T08:03:33.202Z,20.94
2023-05-03T08:04:33.144Z,20.85
2023-05-03T08:05:32.908Z,20.74
2023-05-03T08:06:32.972Z,20.88
2023-05-03T08:07:32.842Z,21.04
2023-05-03T08:08:32.875Z,20.67
2023-05-03T08:09:33.028Z,20.62
2023-05-03T08:10:32.823Z,20.68
2023-05-03T08:11:33.014Z,20.44
2023-05-03T08:12:32.879Z,20.43
2023-05-03T08:13:32.938Z,20.48
2023-05-03T08:14:32.957Z,20.51
2023-05-03T08:15:32.914Z,20.51
2023-05-03T08:16:32.988Z,20.57
2023-05-03T08:17:32.901Z,20.74
2023-05-03T08:18:32.959Z,20.90
2023-05-03T08:19:33.061Z,21.06
2023-05-03T08:20:33.127Z,21.01
2023-05-03T08:21:32.999Z,20.94
2023-05-03T08:22:33.033Z,20.83
2023-05-03T08:23:33.013Z,21.02
2023-05-03T08:24:33.062Z,21.21
2023-05-03T08:25:33.116Z,21.22
2023-05-03T08:26:33.399Z,21.06
2023-05-03T08:27:33.110Z,21.12
2023-05-03T08:28:33.197Z,20.44
2023-05-03T08:29:33.254Z,20.81
2023-05-03T08:30:33.214Z,20.93
2023-05-03T08:31:36.127Z,20.90
2023-05-03T08:32:33.258Z,21.05
2023-05-03T08:33:33.301Z,21.04
2023-05-03T08:34:33.190Z,21.01
2023-05-03T08:35:33.173Z,21.05
2023-05-03T08:36:33.159Z,20.88
2023-05-03T08:37:33.144Z,21.15
2023-05-03T08:38:33.153Z,21.19
2023-05-03T08:39:33.156Z,21.39
2023-05-03T08:40:33.140Z,20.94
2023-05-03T08:41:33.223Z,20.36
2023-05-03T08:42:33.168Z,20.77
2023-05-03T08:43:33.152Z,20.66
2023-05-03T08:44:33.111Z,20.73
2023-05-03T08:45:33.122Z,20.26
2023-05-03T08:46:33.122Z,20.09
2023-05-03T08:47:33.149Z,20.30
2023-05-03T08:48:33.781Z,20.30
2023-05-03T08:49:33.791Z,19.82
2023-05-03T08:50:33.101Z,20.47
2023-05-03T08:51:33.112Z,20.50
2023-05-03T08:52:33.289Z,20.74
2023-05-03T08:53:33.032Z,21.02
2023-05-03T08:54:33.054Z,21.24
2023-05-03T08:55:33.060Z,21.44
2023-05-03T08:56:33.104Z,21.36
2023-05-03T08:57:33.033Z,21.39
2023-05-03T08:58:34.059Z,21.31
2023-05-03T08:59:33.607Z,21.41
2023-05-03T09:00:33.001Z,21.52
2023-05-03T09:01:33.021Z,21.77
2023-05-03T09:02:33.201Z,21.89
2023-05-03T09:03:33.078Z,22.16
2023-05-03T09:04:33.895Z,22.25
2023-05-03T09:05:33.129Z,22.38
2023-05-03T09:06:33.005Z,22.38
2023-05-03T09:07:33.418Z,22.50
2023-05-03T09:08:32.968Z,22.50
2023-05-03T09:09:33.904Z,22.67
2023-05-03T09:10:32.962Z,22.79
2023-05-03T09:11:33.018Z,22.92
2023-05-03T09:12:33.026Z,22.92
2023-05-03T09:13:33.161Z,22.94
2023-05-03T09:14:33.169Z,23.13
2023-05-03T09:15:32.965Z,22.92
2023-05-03T09:16:33.017Z,23.15
2023-05-03T09:17:33.027Z,23.20
2023-05-03T09:18:32.969Z,23.33
2023-05-03T09:19:32.913Z,23.42
2023-05-03T09:20:33.086Z,23.46
2023-05-03T09:21:32.914Z,23.52
2023-05-03T09:22:32.925Z,23.61
2023-05-03T09:23:32.906Z,23.73
2023-05-03T09:24:33.375Z,23.83
2023-05-03T09:25:32.875Z,23.81
2023-05-03T09:26:34.046Z,23.96
2023-05-03T09:27:32.860Z,24.00
2023-05-03T09:28:32.809Z,24.01
2023-05-03T09:29:32.937Z,24.18
2023-05-03T09:30:32.872Z,24.18
2023-05-03T09:31:32.892Z,23.93
2023-05-03T09:32:32.954Z,24.21
2023-05-03T09:33:33.838Z,24.21
2023-05-03T09:34:32.996Z,24.24
2023-05-03T09:35:33.011Z,24.30
2023-05-03T09:36:33.822Z,24.35
2023-05-03T09:37:33.297Z,24.35
2023-05-03T09:38:34.783Z,24.27
2023-05-03T09:39:33.773Z,24.21
2023-05-03T09:40:33.277Z,24.34
2023-05-03T09:41:33.335Z,24.38
2023-05-03T09:42:34.339Z,24.43
2023-05-03T09:43:33.778Z,24.43
2023-05-03T09:44:33.529Z,24.49
2023-05-03T09:45:33.474Z,24.62
2023-05-03T09:46:33.606Z,24.69
2023-05-03T09:47:34.364Z,24.76
2023-05-03T09:48:33.823Z,24.72
2023-05-03T09:49:33.792Z,24.83
2023-05-03T09:50:33.674Z,24.81
2023-05-03T09:51:33.724Z,24.87
2023-05-03T09:52:33.728Z,24.69
2023-05-03T09:53:33.716Z,24.79
2023-05-03T09:54:33.745Z,24.94
2023-05-03T09:55:33.850Z,24.97
2023-05-03T09:56:33.822Z,24.94
2023-05-03T09:57:33.781Z,25.13
2023-05-03T09:58:33.799Z,25.14
2023-05-03T09:59:33.875Z,25.06
2023-05-03T10:00:34.034Z,24.97
2023-05-03T10:01:33.961Z,24.78
2023-05-03T10:02:33.959Z,24.85
2023-05-03T10:03:33.952Z,24.55
2023-05-03T10:04:34.341Z,24.93
2023-05-03T10:05:33.975Z,24.86
2023-05-03T10:06:34.133Z,24.69
2023-05-03T10:07:33.957Z,24.93
2023-05-03T10:08:34.322Z,25.03
2023-05-03T10:09:33.971Z,25.05
2023-05-03T10:10:34.075Z,24.90
2023-05-03T10:11:34.105Z,25.09
2023-05-03T10:12:34.086Z,25.19
2023-05-03T10:13:34.176Z,25.16
2023-05-03T10:14:34.314Z,25.19
2023-05-03T10:15:34.318Z,25.36
2023-05-03T10:16:34.343Z,25.51
2023-05-03T10:17:46.471Z,25.31
2023-05-03T10:18:35.412Z,25.64
2023-05-03T10:19:34.346Z,25.47
2023-05-03T10:20:34.363Z,25.57
2023-05-03T10:21:34.434Z,25.75
2023-05-03T10:22:34.511Z,25.64
2023-05-03T10:23:34.349Z,25.75
2023-05-03T10:24:34.343Z,25.74
2023-05-03T10:25:34.348Z,25.63
2023-05-03T10:26:34.450Z,25.78
2023-05-03T10:27:34.294Z,25.60
2023-05-03T10:28:34.925Z,25.71
2023-05-03T10:29:34.588Z,25.51
2023-05-03T10:30:34.474Z,25.51
2023-05-03T10:31:34.501Z,25.82
2023-05-03T10:32:35.408Z,25.70
2023-05-03T10:33:34.607Z,25.77
2023-05-03T10:34:34.584Z,25.71
2023-05-03T10:35:34.632Z,25.67
2023-05-03T10:36:48.488Z,25.82
2023-05-03T10:37:35.588Z,25.72
2023-05-03T10:38:35.299Z,25.91
2023-05-03T10:39:34.747Z,25.54
2023-05-03T10:40:34.603Z,25.98
2023-05-03T10:41:34.645Z,25.92
2023-05-03T10:42:34.618Z,25.99
2023-05-03T10:43:34.781Z,26.04
2023-05-03T10:44:35.302Z,25.99
2023-05-03T10:45:34.571Z,26.25
2023-05-03T10:46:34.561Z,26.12
2023-05-03T10:47:34.584Z,26.13
2023-05-03T10:48:34.582Z,25.41
2023-05-03T10:49:34.562Z,25.55
2023-05-03T10:50:34.513Z,25.92
2023-05-03T10:51:34.541Z,25.81
2023-05-03T10:52:34.544Z,25.94
2023-05-03T10:53:34.660Z,26.19
2023-05-03T10:54:34.703Z,26.19
2023-05-03T10:55:34.615Z,26.21
2023-05-03T10:56:34.629Z,26.25
2023-05-03T10:57:34.638Z,26.26
2023-05-03T10:58:34.806Z,26.01
2023-05-03T10:59:34.781Z,26.12
2023-05-03T11:00:34.641Z,25.81
2023-05-03T11:01:34.738Z,25.63
2023-05-03T11:02:34.779Z,25.45
2023-05-03T11:03:34.699Z,25.70
2023-05-03T11:04:35.401Z,25.53
2023-05-03T11:05:34.920Z,25.88
2023-05-03T11:06:38.934Z,26.06
2023-05-03T11:07:34.846Z,26.15
2023-05-03T11:08:35.338Z,26.18
2023-05-03T11:09:34.796Z,26.31
2023-05-03T11:10:34.818Z,26.08
2023-05-03T11:11:34.810Z,26.23
2023-05-03T11:12:34.861Z,26.53
2023-05-03T11:13:35.373Z,26.83
2023-05-03T11:14:34.821Z,26.80
2023-05-03T11:15:34.900Z,26.90
2023-05-03T11:16:34.840Z,27.21
2023-05-03T11:17:34.782Z,27.33
2023-05-03T11:18:36.342Z,27.33
2023-05-03T11:19:34.864Z,27.44
2023-05-03T11:20:34.811Z,27.25
2023-05-03T11:21:34.873Z,27.54
2023-05-03T11:22:34.734Z,27.69
2023-05-03T11:23:34.940Z,27.82
2023-05-03T11:24:34.721Z,26.73
2023-05-03T11:25:34.718Z,26.89
2023-05-03T11:26:34.713Z,26.63
2023-05-03T11:27:34.746Z,27.14
2023-05-03T11:28:35.363Z,27.15
2023-05-03T11:29:35.369Z,27.38
2023-05-03T11:30:34.676Z,27.59
2023-05-03T11:31:34.760Z,27.61
2023-05-03T11:32:34.696Z,27.91
2023-05-03T11:33:34.729Z,27.95
2023-05-03T11:34:34.654Z,28.10
2023-05-03T11:35:34.662Z,28.17
2023-05-03T11:36:34.640Z,28.51
2023-05-03T11:37:34.659Z,28.47
2023-05-03T11:38:42.342Z,28.67
2023-05-03T11:39:34.833Z,28.46
2023-05-03T11:40:34.618Z,28.53
2023-05-03T11:41:34.628Z,28.60
2023-05-03T11:42:34.599Z,28.86
2023-05-03T11:43:34.870Z,28.50
2023-05-03T11:44:34.995Z,28.60
2023-05-03T11:45:34.659Z,28.81
2023-05-03T11:46:34.676Z,29.18
2023-05-03T11:47:34.704Z,29.11
2023-05-03T11:48:34.652Z,28.84
2023-05-03T11:49:36.208Z,29.14
2023-05-03T11:50:34.576Z,29.32
2023-05-03T11:51:34.568Z,29.42
2023-05-03T11:52:34.587Z,29.25
2023-05-03T11:53:34.859Z,29.49
2023-05-03T11:54:34.512Z,29.30
2023-05-03T11:55:34.532Z,29.70
2023-05-03T11:56:34.571Z,29.65
2023-05-03T11:57:34.551Z,29.52
2023-05-03T11:58:34.501Z,29.36
2023-05-03T11:59:35.323Z,29.38
2023-05-03T12:00:34.560Z,29.11
2023-05-03T12:01:34.555Z,29.33
2023-05-03T12:02:34.703Z,29.42
2023-05-03T12:03:34.827Z,29.33
2023-05-03T12:04:34.951Z,29.18
2023-05-03T12:05:35.049Z,29.33
2023-05-03T12:06:36.054Z,29.33
2023-05-03T12:07:35.126Z,29.53
2023-05-03T12:08:37.000Z,29.55
2023-05-03T12:09:36.684Z,29.72
2023-05-03T12:10:35.886Z,29.77
2023-05-03T12:11:36.310Z,29.72
2023-05-03T12:12:38.059Z,29.86
2023-05-03T12:13:38.415Z,29.99
2023-05-03T12:14:36.016Z,30.09
2023-05-03T12:15:36.715Z,30.37
2023-05-03T12:16:34.784Z,30.60
2023-05-03T12:17:36.892Z,30.71
2023-05-03T12:18:35.092Z,30.86
2023-05-03T12:19:37.954Z,30.79
2023-05-03T12:21:35.757Z,30.83
2023-05-03T12:22:35.008Z,30.78
2023-05-03T12:23:34.825Z,30.93
2023-05-03T12:24:36.681Z,30.95
2023-05-03T12:25:35.685Z,31.08
2023-05-03T12:26:34.983Z,31.09
2023-05-03T12:27:36.770Z,30.88
2023-05-03T12:28:34.870Z,31.09
2023-05-03T12:29:35.717Z,30.92
2023-05-03T12:30:34.703Z,30.83
2023-05-03T12:31:35.083Z,30.88
2023-05-03T12:32:34.712Z,30.85
2023-05-03T12:33:36.501Z,30.45
2023-05-03T12:34:36.190Z,30.35
2023-05-03T12:35:34.981Z,30.45
2023-05-03T12:36:37.066Z,30.64
2023-05-03T12:37:38.093Z,30.07
2023-05-03T12:38:37.272Z,30.41
2023-05-03T12:39:38.972Z,30.52
2023-05-03T12:40:35.772Z,30.31
2023-05-03T12:42:35.636Z,29.84
2023-05-03T12:43:34.615Z,29.45
2023-05-03T12:44:35.430Z,28.70
2023-05-03T12:45:35.048Z,29.18
2023-05-03T12:46:35.541Z,28.74
2023-05-03T12:48:34.677Z,28.12
2023-05-03T12:50:38.361Z,28.13
2023-05-03T12:51:34.738Z,28.63
2023-05-03T12:52:37.923Z,28.95
2023-05-03T12:53:37.075Z,29.08
2023-05-03T12:54:34.552Z,29.18
2023-05-03T12:55:35.328Z,29.53
2023-05-03T12:56:39.364Z,29.70